Winterset, Iowa
Current Conditions -  °F | °C
As of 7:07 AM on Friday 19 Dec 2014 (Local Time) from KDSM Reporting Station
Light Snow Light Snow  
Wind Chill: 24°   Ceiling: 1600
Heat Index: 29°   Visibility: 5mi
Dew Point: 25°   Wind: 5mph
Humidity: 85%   Direction: 130°SE
Pressure: 30.27"   Gusts: NA
Location:  41.33°N, 94.01°W
Report Text: KDSM 191307Z 13004KT 5SM -SN BR BKN016 OVC041 M02/M04 A3027 RMK AO2 P0000 T10171039
Loading
Personal Weather Stations






























Interactive Weather Map New forecast layout! Learn more

10-Day Weather Forecast

Advertisements
Track Severe Weather on mobile